createdAt,value
2023-04-30T00:02:09.758Z,11.10
2023-04-30T00:04:37.175Z,11.10
2023-04-30T00:07:04.410Z,11.10
2023-04-30T00:09:31.341Z,11.10
2023-04-30T00:11:58.987Z,11.10
2023-04-30T00:14:26.220Z,11.10
2023-04-30T00:16:53.242Z,11.00
2023-04-30T00:19:20.295Z,11.00
2023-04-30T00:21:47.924Z,11.00
2023-04-30T00:24:14.897Z,11.00
2023-04-30T00:26:42.890Z,10.90
2023-04-30T00:29:10.585Z,10.80
2023-04-30T00:31:37.586Z,10.70
2023-04-30T00:34:04.688Z,10.70
2023-04-30T00:36:32.169Z,10.60
2023-04-30T00:38:59.192Z,10.60
2023-04-30T00:41:26.471Z,10.60
2023-04-30T00:43:53.373Z,10.50
2023-04-30T00:46:20.356Z,10.40
2023-04-30T00:48:47.446Z,10.30
2023-04-30T00:51:14.400Z,10.30
2023-04-30T00:53:41.583Z,10.30
2023-04-30T00:56:09.571Z,10.30
2023-04-30T00:58:36.903Z,10.30
2023-04-30T01:01:04.401Z,10.30
2023-04-30T01:03:31.548Z,10.30
2023-04-30T01:05:58.624Z,10.30
2023-04-30T01:08:26.663Z,10.20
2023-04-30T01:11:02.405Z,10.10
2023-04-30T01:13:32.417Z,10.10
2023-04-30T01:16:18.247Z,10.10
2023-04-30T01:19:05.469Z,10.10
2023-04-30T01:21:33.799Z,10.00
2023-04-30T01:24:14.759Z,10.10
2023-04-30T01:27:00.046Z,10.10
2023-04-30T01:29:27.544Z,10.00
2023-04-30T01:31:54.440Z,9.90
2023-04-30T01:34:21.588Z,9.90
2023-04-30T01:37:07.168Z,9.80
2023-04-30T01:39:49.078Z,9.80
2023-04-30T01:42:42.098Z,9.80
2023-04-30T01:45:09.061Z,9.80
2023-04-30T01:47:54.757Z,9.80
2023-04-30T01:50:40.412Z,9.80
2023-04-30T01:53:09.737Z,9.80
2023-04-30T01:55:41.804Z,9.70
2023-04-30T01:58:13.326Z,9.60
2023-04-30T02:00:40.272Z,9.60
2023-04-30T02:03:07.973Z,9.50
2023-04-30T02:05:35.265Z,9.40
2023-04-30T02:08:02.339Z,9.50
2023-04-30T02:10:30.648Z,9.40
2023-04-30T02:12:57.853Z,9.40
2023-04-30T02:15:24.869Z,9.40
2023-04-30T02:17:51.868Z,9.40
2023-04-30T02:20:18.973Z,9.30
2023-04-30T02:22:58.372Z,9.30
2023-04-30T02:25:26.594Z,9.20
2023-04-30T02:27:53.581Z,9.20
2023-04-30T02:30:21.232Z,9.20
2023-04-30T02:32:48.534Z,9.20
2023-04-30T02:35:15.809Z,9.20
2023-04-30T02:37:43.083Z,9.30
2023-04-30T02:40:10.869Z,9.30
2023-04-30T02:42:38.183Z,9.20
2023-04-30T02:45:05.434Z,9.20
2023-04-30T02:47:32.634Z,9.10
2023-04-30T02:49:59.652Z,9.10
2023-04-30T02:52:27.050Z,9.10
2023-04-30T02:54:54.033Z,9.10
2023-04-30T02:57:21.105Z,9.10
2023-04-30T02:59:48.134Z,9.20
2023-04-30T03:02:15.208Z,9.20
2023-04-30T03:04:42.210Z,9.20
2023-04-30T03:07:09.186Z,9.20
2023-04-30T03:09:36.726Z,9.20
2023-04-30T03:12:03.790Z,9.20
2023-04-30T03:14:30.996Z,9.20
2023-04-30T03:16:58.656Z,9.20
2023-04-30T03:19:25.739Z,9.30
2023-04-30T03:21:55.871Z,9.30
2023-04-30T03:24:23.295Z,9.20
2023-04-30T03:26:50.309Z,9.20
2023-04-30T03:29:17.425Z,9.20
2023-04-30T03:31:44.473Z,9.10
2023-04-30T03:34:11.722Z,9.10
2023-04-30T03:36:38.807Z,9.00
2023-04-30T03:39:06.021Z,8.90
2023-04-30T03:41:33.693Z,8.80
2023-04-30T03:44:00.651Z,8.80
2023-04-30T03:46:28.064Z,8.70
2023-04-30T03:48:55.001Z,8.60
2023-04-30T03:51:22.049Z,8.60
2023-04-30T03:53:48.999Z,8.50
2023-04-30T03:56:16.076Z,8.50
2023-04-30T03:58:43.108Z,8.40
2023-04-30T04:01:10.150Z,8.40
2023-04-30T04:03:37.112Z,8.30
2023-04-30T04:06:15.277Z,8.30
2023-04-30T04:08:43.541Z,8.40
2023-04-30T04:11:12.097Z,8.40
2023-04-30T04:13:39.432Z,8.40
2023-04-30T04:16:08.963Z,8.40
2023-04-30T04:18:36.747Z,8.40
2023-04-30T04:21:04.642Z,8.40
2023-04-30T04:23:31.603Z,8.50
2023-04-30T04:25:58.580Z,8.50
2023-04-30T04:28:26.692Z,8.60
2023-04-30T04:30:53.731Z,8.60
2023-04-30T04:33:20.760Z,8.60
2023-04-30T04:35:47.990Z,8.60
2023-04-30T04:38:15.555Z,8.50
2023-04-30T04:40:50.971Z,8.60
2023-04-30T04:43:17.990Z,8.60
2023-04-30T04:45:44.918Z,8.60
2023-04-30T04:48:11.860Z,8.60
2023-04-30T04:50:38.815Z,8.60
2023-04-30T04:53:06.115Z,8.60
2023-04-30T04:55:33.681Z,8.60
2023-04-30T04:58:00.633Z,8.70
2023-04-30T05:00:27.689Z,8.70
2023-04-30T05:02:54.791Z,8.80
2023-04-30T05:05:21.856Z,8.90
2023-04-30T05:07:51.273Z,9.00
2023-04-30T05:10:18.439Z,9.00
2023-04-30T05:12:45.716Z,9.10
2023-04-30T05:15:12.768Z,9.10
2023-04-30T05:17:39.871Z,9.20
2023-04-30T05:20:07.588Z,9.10
2023-04-30T05:22:34.867Z,9.20
2023-04-30T05:25:01.841Z,9.10
2023-04-30T05:27:29.110Z,9.20
2023-04-30T05:29:56.427Z,9.30
2023-04-30T05:32:24.012Z,9.30
2023-04-30T05:34:51.053Z,9.40
2023-04-30T05:37:19.723Z,9.50
2023-04-30T05:39:46.952Z,9.50
2023-04-30T05:42:13.990Z,9.40
2023-04-30T05:44:41.547Z,9.60
2023-04-30T05:47:08.605Z,9.70
2023-04-30T05:49:36.367Z,9.90
2023-04-30T05:52:03.959Z,10.00
2023-04-30T05:54:31.443Z,10.10
2023-04-30T05:56:58.493Z,10.30
2023-04-30T05:59:26.297Z,10.40
2023-04-30T06:01:56.023Z,10.50
2023-04-30T06:04:22.999Z,10.60
2023-04-30T06:06:50.067Z,10.80
2023-04-30T06:09:17.098Z,11.00
2023-04-30T06:11:46.079Z,11.20
2023-04-30T06:14:13.128Z,11.00
2023-04-30T06:16:40.160Z,11.00
2023-04-30T06:19:07.282Z,11.10
2023-04-30T06:21:34.322Z,11.20
2023-04-30T06:24:01.329Z,11.50
2023-04-30T06:26:28.269Z,11.50
2023-04-30T06:28:55.312Z,11.50
2023-04-30T06:31:22.723Z,11.60
2023-04-30T06:33:50.525Z,11.80
2023-04-30T06:36:19.085Z,11.80
2023-04-30T06:38:49.248Z,11.80
2023-04-30T06:41:16.886Z,11.90
2023-04-30T06:43:44.105Z,12.20
2023-04-30T06:46:11.115Z,12.20
2023-04-30T06:48:38.166Z,12.30
2023-04-30T06:51:05.340Z,12.40
2023-04-30T06:53:32.424Z,12.50
2023-04-30T06:55:59.441Z,12.70
2023-04-30T06:58:26.495Z,12.70
2023-04-30T07:00:54.873Z,12.70
2023-04-30T07:03:21.868Z,12.70
2023-04-30T07:05:48.894Z,12.90
2023-04-30T07:08:15.790Z,13.00
2023-04-30T07:10:42.756Z,13.10
2023-04-30T07:13:09.715Z,13.10
2023-04-30T07:15:37.453Z,13.20
2023-04-30T07:18:04.842Z,13.20
2023-04-30T07:20:32.581Z,13.30
2023-04-30T07:22:59.556Z,13.40
2023-04-30T07:25:27.351Z,13.60
2023-04-30T07:27:55.615Z,13.80
2023-04-30T07:30:24.898Z,13.90
2023-04-30T07:32:52.333Z,14.00
2023-04-30T07:35:19.374Z,14.00
2023-04-30T07:37:46.530Z,14.00
2023-04-30T07:40:21.964Z,14.10
2023-04-30T07:42:56.062Z,14.20
2023-04-30T07:45:23.168Z,14.30
2023-04-30T07:47:50.228Z,14.40
2023-04-30T07:50:17.515Z,14.50
2023-04-30T07:52:44.612Z,14.60
2023-04-30T07:55:11.671Z,14.80
2023-04-30T07:57:39.753Z,14.90
2023-04-30T08:00:07.404Z,15.00
2023-04-30T08:02:34.706Z,15.40
2023-04-30T08:05:01.851Z,15.20
2023-04-30T08:07:28.843Z,15.20
2023-04-30T08:09:56.187Z,15.30
2023-04-30T08:12:23.351Z,15.40
2023-04-30T08:14:50.330Z,15.40
2023-04-30T08:17:17.282Z,15.60
2023-04-30T08:19:44.411Z,15.50
2023-04-30T08:22:11.475Z,15.70
2023-04-30T08:24:38.463Z,15.80
2023-04-30T08:27:05.447Z,15.90
2023-04-30T08:29:32.473Z,15.90
2023-04-30T08:32:03.006Z,15.90
2023-04-30T08:34:30.049Z,16.00
2023-04-30T08:36:57.169Z,16.10
2023-04-30T08:39:24.966Z,16.40
2023-04-30T08:41:56.014Z,16.10
2023-04-30T08:44:24.016Z,16.30
2023-04-30T08:46:54.577Z,16.40
2023-04-30T08:55:52.542Z,16.70
2023-04-30T08:58:20.312Z,16.90
2023-04-30T09:00:47.299Z,17.10
2023-04-30T09:03:14.421Z,17.10
2023-04-30T09:05:42.102Z,17.10
2023-04-30T09:08:09.277Z,17.20
2023-04-30T09:10:36.498Z,17.30
2023-04-30T09:13:09.800Z,17.50
2023-04-30T09:15:37.811Z,17.40
2023-04-30T09:18:12.784Z,17.50
2023-04-30T09:20:54.012Z,17.40
2023-04-30T09:23:20.981Z,17.20
2023-04-30T09:25:47.959Z,17.40
2023-04-30T09:28:15.016Z,17.40
2023-04-30T09:30:42.386Z,17.40
2023-04-30T09:33:11.640Z,17.20
2023-04-30T09:35:40.301Z,17.20
2023-04-30T09:38:07.299Z,17.50
2023-04-30T09:40:52.202Z,17.60
2023-04-30T09:43:19.197Z,17.50
2023-04-30T09:45:53.177Z,17.40
2023-04-30T09:48:23.812Z,17.50
2023-04-30T09:50:51.225Z,17.60
2023-04-30T09:53:18.830Z,17.90
2023-04-30T09:55:46.858Z,17.90
2023-04-30T09:58:14.292Z,17.90
2023-04-30T10:00:42.391Z,18.30
2023-04-30T10:03:13.495Z,18.50
2023-04-30T10:05:43.716Z,18.60
2023-04-30T10:08:13.952Z,18.60
2023-04-30T10:10:41.608Z,18.70
2023-04-30T10:13:11.048Z,18.40
2023-04-30T10:15:45.392Z,18.30
2023-04-30T10:18:19.672Z,18.60
2023-04-30T10:20:47.803Z,18.70
2023-04-30T10:23:14.920Z,18.70
2023-04-30T10:25:42.208Z,18.60
2023-04-30T10:28:09.216Z,18.60
2023-04-30T10:30:36.543Z,18.80
2023-04-30T10:33:10.737Z,18.80
2023-04-30T10:35:45.544Z,19.00
2023-04-30T10:38:18.832Z,19.40
2023-04-30T10:40:47.108Z,19.20
2023-04-30T10:43:14.455Z,19.20
2023-04-30T10:45:44.359Z,19.10
2023-04-30T10:48:11.683Z,19.20
2023-04-30T10:50:45.593Z,18.90
2023-04-30T10:53:18.525Z,18.90
2023-04-30T10:55:52.653Z,19.20
2023-04-30T10:58:32.683Z,19.50
2023-04-30T11:01:15.995Z,19.40
2023-04-30T11:03:43.929Z,19.60
2023-04-30T11:06:15.488Z,19.60
2023-04-30T11:08:46.279Z,19.60
2023-04-30T11:11:18.226Z,19.70
2023-04-30T11:13:45.972Z,19.70
2023-04-30T11:16:13.300Z,19.80
2023-04-30T11:18:46.471Z,19.80
2023-04-30T11:21:13.847Z,19.70
2023-04-30T11:23:42.601Z,19.60
2023-04-30T11:26:09.845Z,19.50
2023-04-30T11:28:38.188Z,19.50
2023-04-30T11:31:05.915Z,19.70
2023-04-30T11:33:34.112Z,19.70
2023-04-30T11:36:01.573Z,20.00
2023-04-30T11:38:35.346Z,20.20
2023-04-30T11:41:03.015Z,20.40
2023-04-30T11:43:30.128Z,20.50
2023-04-30T11:46:05.645Z,20.40
2023-04-30T11:48:33.732Z,20.40
2023-04-30T11:51:03.366Z,20.50
2023-04-30T11:53:31.250Z,20.90
2023-04-30T11:56:02.553Z,21.00
2023-04-30T11:58:34.071Z,21.00
2023-04-30T12:01:01.463Z,20.90
2023-04-30T12:03:28.554Z,20.70
2023-04-30T12:05:55.631Z,20.60
2023-04-30T12:08:22.897Z,20.60
2023-04-30T12:10:49.987Z,21.10
2023-04-30T12:13:17.116Z,21.30
2023-04-30T12:15:57.956Z,21.70
2023-04-30T12:18:24.939Z,21.60
2023-04-30T12:20:52.263Z,21.60
2023-04-30T12:23:19.937Z,21.70
2023-04-30T12:25:47.999Z,22.00
2023-04-30T12:28:15.039Z,22.10
2023-04-30T12:30:43.329Z,22.10
2023-04-30T12:33:10.988Z,21.90
2023-04-30T12:35:42.329Z,21.90
2023-04-30T12:38:09.946Z,21.90
2023-04-30T12:40:37.347Z,21.80
2023-04-30T12:43:04.405Z,21.60
2023-04-30T12:45:54.777Z,21.40
2023-04-30T12:48:23.206Z,21.50
2023-04-30T12:50:57.219Z,21.50
2023-04-30T12:53:24.850Z,21.60
2023-04-30T12:56:11.034Z,21.70
2023-04-30T12:58:38.999Z,21.70
2023-04-30T13:01:06.543Z,22.00
2023-04-30T13:03:33.753Z,22.40
2023-04-30T13:06:03.266Z,22.30
2023-04-30T13:08:30.783Z,22.20
2023-04-30T13:10:58.430Z,22.10
2023-04-30T13:13:25.551Z,22.20
2023-04-30T13:15:52.974Z,22.20
2023-04-30T13:18:20.176Z,22.60
2023-04-30T13:20:47.224Z,22.80
2023-04-30T13:23:16.647Z,22.60
2023-04-30T13:25:43.890Z,22.70
2023-04-30T13:28:10.889Z,22.50
2023-04-30T13:30:37.876Z,22.60
2023-04-30T13:33:05.225Z,22.30
2023-04-30T13:35:32.422Z,22.70
2023-04-30T13:37:59.947Z,23.00
2023-04-30T13:40:27.127Z,22.90
2023-04-30T13:42:54.199Z,23.20
2023-04-30T13:45:21.305Z,23.10
2023-04-30T13:47:48.375Z,22.90
2023-04-30T13:50:15.548Z,22.70
2023-04-30T13:52:42.569Z,22.60
2023-04-30T13:55:10.053Z,22.40
2023-04-30T13:57:37.003Z,22.50
2023-04-30T14:00:05.494Z,22.50
2023-04-30T14:02:32.624Z,22.50
2023-04-30T14:05:05.921Z,22.50
2023-04-30T14:07:34.004Z,22.60
2023-04-30T14:10:01.167Z,22.50
2023-04-30T14:12:30.915Z,22.50
2023-04-30T14:14:58.164Z,22.70
2023-04-30T14:17:27.218Z,22.80
2023-04-30T14:19:55.151Z,22.70
2023-04-30T14:22:22.333Z,22.40
2023-04-30T14:24:49.293Z,22.50
2023-04-30T14:27:16.441Z,22.60
2023-04-30T14:29:43.477Z,22.50
2023-04-30T14:32:10.776Z,22.50
2023-04-30T14:34:37.835Z,22.40
2023-04-30T14:37:04.907Z,22.60
2023-04-30T14:39:31.939Z,22.80
2023-04-30T14:41:58.899Z,23.20
2023-04-30T14:44:26.908Z,23.20
2023-04-30T14:46:54.013Z,23.10
2023-04-30T14:49:21.113Z,23.20
2023-04-30T14:51:48.653Z,23.20
2023-04-30T14:54:16.695Z,23.30
2023-04-30T14:56:44.640Z,23.10
2023-04-30T14:59:12.198Z,22.90
2023-04-30T15:01:39.241Z,23.00
2023-04-30T15:04:06.745Z,23.10
2023-04-30T15:06:34.293Z,23.20
2023-04-30T15:09:02.017Z,23.10
2023-04-30T15:11:29.122Z,23.00
2023-04-30T15:13:56.174Z,22.90
2023-04-30T15:16:23.260Z,23.00
2023-04-30T15:18:50.794Z,22.60
2023-04-30T15:21:17.818Z,22.60
2023-04-30T15:23:46.196Z,22.60
2023-04-30T15:26:13.348Z,22.60
2023-04-30T15:28:40.399Z,22.60
2023-04-30T15:31:07.641Z,22.50
2023-04-30T15:33:39.859Z,22.60
2023-04-30T15:36:07.020Z,22.50
2023-04-30T15:38:34.986Z,22.40
2023-04-30T15:41:02.078Z,22.40
2023-04-30T15:43:30.210Z,22.80
2023-04-30T15:45:57.448Z,22.80
2023-04-30T15:48:24.493Z,22.70
2023-04-30T15:50:51.491Z,22.60
2023-04-30T15:53:19.089Z,22.60
2023-04-30T15:55:46.889Z,22.60
2023-04-30T15:58:13.943Z,22.70
2023-04-30T16:00:41.567Z,22.60
2023-04-30T16:03:08.714Z,22.40
2023-04-30T16:05:38.943Z,22.70
2023-04-30T16:08:10.207Z,22.60
2023-04-30T16:10:37.797Z,22.60
2023-04-30T16:13:05.283Z,22.60
2023-04-30T16:15:32.755Z,22.50
2023-04-30T16:17:59.948Z,22.20
2023-04-30T16:20:28.128Z,22.20
2023-04-30T16:22:59.657Z,22.10
2023-04-30T16:25:26.951Z,22.20
2023-04-30T16:27:53.934Z,22.20
2023-04-30T16:30:20.974Z,22.40
2023-04-30T16:32:48.037Z,22.50
2023-04-30T16:35:15.064Z,22.50
2023-04-30T16:37:42.008Z,22.60
2023-04-30T16:40:09.760Z,22.60
2023-04-30T16:42:36.802Z,22.60
2023-04-30T16:45:04.286Z,22.50
2023-04-30T16:47:31.353Z,22.50
2023-04-30T16:49:58.813Z,22.60
2023-04-30T16:52:26.001Z,22.50
2023-04-30T16:54:52.995Z,22.40
2023-04-30T16:57:20.064Z,22.40
2023-04-30T16:59:47.226Z,22.50
2023-04-30T17:02:17.118Z,22.50
2023-04-30T17:04:44.167Z,22.40
2023-04-30T17:07:12.866Z,22.40
2023-04-30T17:09:40.071Z,22.50
2023-04-30T17:12:07.842Z,22.40
2023-04-30T17:14:34.892Z,22.40
2023-04-30T17:17:02.097Z,22.30
2023-04-30T17:19:29.036Z,22.10
2023-04-30T17:21:56.190Z,21.90
2023-04-30T17:24:24.532Z,21.90
2023-04-30T17:26:51.754Z,21.70
2023-04-30T17:29:20.029Z,21.50
2023-04-30T17:31:47.564Z,21.40
2023-04-30T17:34:14.746Z,21.20
2023-04-30T17:36:42.505Z,21.10
2023-04-30T17:39:09.492Z,21.00
2023-04-30T17:41:36.465Z,20.90
2023-04-30T17:44:03.502Z,20.70
2023-04-30T17:46:30.515Z,20.60
2023-04-30T17:49:01.959Z,20.50
2023-04-30T17:51:34.918Z,20.40
2023-04-30T17:54:01.925Z,20.30
2023-04-30T17:56:31.619Z,20.20
2023-04-30T17:59:14.976Z,20.10
2023-04-30T18:01:42.190Z,20.00
2023-04-30T18:04:09.442Z,20.00
2023-04-30T18:06:36.690Z,19.90
2023-04-30T18:09:04.593Z,19.80
2023-04-30T18:11:31.762Z,19.80
2023-04-30T18:13:58.773Z,19.70
2023-04-30T18:16:25.788Z,19.60
2023-04-30T18:18:52.908Z,19.50
2023-04-30T18:21:19.962Z,19.40
2023-04-30T18:23:48.322Z,19.40
2023-04-30T18:26:15.346Z,19.30
2023-04-30T18:28:42.735Z,19.20
2023-04-30T18:31:11.779Z,19.00
2023-04-30T18:33:38.904Z,19.00
2023-04-30T18:36:07.775Z,18.80
2023-04-30T18:38:34.919Z,18.70
2023-04-30T18:41:02.666Z,18.60
2023-04-30T18:43:29.727Z,18.60
2023-04-30T18:45:56.860Z,18.50
2023-04-30T18:48:23.810Z,18.40
2023-04-30T18:50:50.998Z,18.30
2023-04-30T18:53:18.327Z,18.20
2023-04-30T18:55:45.475Z,18.10
2023-04-30T18:58:12.670Z,18.00
2023-04-30T19:00:43.320Z,18.00
2023-04-30T19:03:10.776Z,17.90
2023-04-30T19:05:38.022Z,17.80
2023-04-30T19:08:05.238Z,17.70
2023-04-30T19:10:33.748Z,17.70
2023-04-30T19:13:00.847Z,17.60
2023-04-30T19:15:29.924Z,17.50
2023-04-30T19:17:57.950Z,17.50
2023-04-30T19:20:24.976Z,17.40
2023-04-30T19:22:52.088Z,17.30
2023-04-30T19:25:19.150Z,17.30
2023-04-30T19:27:46.994Z,17.20
2023-04-30T19:30:14.720Z,17.20
2023-04-30T19:32:41.832Z,17.10
2023-04-30T19:35:18.219Z,17.00
2023-04-30T19:37:45.357Z,17.00
2023-04-30T19:40:12.652Z,16.90
2023-04-30T19:42:40.233Z,16.90
2023-04-30T19:45:07.992Z,16.80
2023-04-30T19:47:34.976Z,16.80
2023-04-30T19:50:02.151Z,16.80
2023-04-30T19:52:29.148Z,16.70
2023-04-30T19:54:56.119Z,16.60
2023-04-30T19:57:23.046Z,16.60
2023-04-30T19:59:52.305Z,16.50
2023-04-30T20:02:19.336Z,16.50
2023-04-30T20:04:46.325Z,16.50
2023-04-30T20:07:14.130Z,16.40
2023-04-30T20:09:41.525Z,16.30
2023-04-30T20:12:08.526Z,16.30
2023-04-30T20:14:35.453Z,16.20
2023-04-30T20:17:02.827Z,16.20
2023-04-30T20:19:29.753Z,16.10
2023-04-30T20:21:56.703Z,16.10
2023-04-30T20:24:23.649Z,16.00
2023-04-30T20:26:50.893Z,16.00
2023-04-30T20:29:20.794Z,16.00
2023-04-30T20:31:48.153Z,15.90
2023-04-30T20:34:15.210Z,15.90
2023-04-30T20:36:42.166Z,15.90
2023-04-30T20:39:09.369Z,15.90
2023-04-30T20:41:36.455Z,15.90
2023-04-30T20:44:03.395Z,15.80
2023-04-30T20:46:32.420Z,15.80
2023-04-30T20:49:04.479Z,15.80
2023-04-30T20:51:31.677Z,15.80
2023-04-30T20:53:58.943Z,15.70
2023-04-30T20:56:26.196Z,15.70
2023-04-30T20:58:54.162Z,15.70
2023-04-30T21:01:21.364Z,15.70
2023-04-30T21:03:48.979Z,15.60
2023-04-30T21:06:18.709Z,15.60
2023-04-30T21:08:46.305Z,15.60
2023-04-30T21:11:15.933Z,15.60
2023-04-30T21:13:43.010Z,15.60
2023-04-30T21:16:09.997Z,15.60
2023-04-30T21:18:37.319Z,15.50
2023-04-30T21:21:05.158Z,15.50
2023-04-30T21:23:32.963Z,15.50
2023-04-30T21:25:59.993Z,15.50
2023-04-30T21:28:27.108Z,15.50
2023-04-30T21:30:54.279Z,15.40
2023-04-30T21:33:21.414Z,15.40
2023-04-30T21:35:48.427Z,15.40
2023-04-30T21:38:15.427Z,15.40
2023-04-30T21:40:43.200Z,15.30
2023-04-30T21:43:10.168Z,15.30
2023-04-30T21:45:37.147Z,15.30
2023-04-30T21:48:04.357Z,15.20
2023-04-30T21:50:34.539Z,15.20
2023-04-30T21:53:02.378Z,15.20
2023-04-30T21:55:29.460Z,15.20
2023-04-30T21:57:56.713Z,15.20
2023-04-30T22:00:23.838Z,15.20
2023-04-30T22:02:51.066Z,15.20
2023-04-30T22:05:19.231Z,15.20
2023-04-30T22:07:47.558Z,15.20
2023-04-30T22:10:15.120Z,15.20
2023-04-30T22:12:43.308Z,15.20
2023-04-30T22:15:12.532Z,15.20
2023-04-30T22:17:40.467Z,15.20
2023-04-30T22:20:08.699Z,15.10
2023-04-30T22:22:36.613Z,15.10
2023-04-30T22:25:04.779Z,15.10
2023-04-30T22:27:32.295Z,15.10
2023-04-30T22:29:59.357Z,15.10
2023-04-30T22:32:26.552Z,15.10
2023-04-30T22:34:53.588Z,15.10
2023-04-30T22:37:20.556Z,15.00
2023-04-30T22:39:48.629Z,15.00
2023-04-30T22:42:15.925Z,15.00
2023-04-30T22:44:45.128Z,15.00
2023-04-30T22:47:12.559Z,15.00
2023-04-30T22:49:39.856Z,15.00
2023-04-30T22:52:07.619Z,14.90
2023-04-30T22:54:35.310Z,14.90
2023-04-30T22:57:03.349Z,14.80
2023-04-30T22:59:30.472Z,14.90
2023-04-30T23:01:57.594Z,14.90
2023-04-30T23:04:26.271Z,14.90
2023-04-30T23:06:53.419Z,14.90
2023-04-30T23:09:20.392Z,14.80
2023-04-30T23:11:48.513Z,14.80
2023-04-30T23:14:15.525Z,14.90
2023-04-30T23:16:42.997Z,14.90
2023-04-30T23:19:10.665Z,14.90
2023-04-30T23:21:37.784Z,14.90
2023-04-30T23:24:04.795Z,14.90
2023-04-30T23:26:31.974Z,14.90
2023-04-30T23:29:00.050Z,14.90
2023-04-30T23:31:27.519Z,14.90
2023-04-30T23:33:54.785Z,14.80
2023-04-30T23:36:21.743Z,14.80
2023-04-30T23:38:48.763Z,14.80
2023-04-30T23:41:15.795Z,14.80
2023-04-30T23:43:47.012Z,14.70
2023-04-30T23:46:16.203Z,14.70
2023-04-30T23:48:43.256Z,14.70
2023-04-30T23:51:10.302Z,14.70
2023-04-30T23:53:37.321Z,14.70
2023-04-30T23:56:05.347Z,14.70
2023-04-30T23:58:32.698Z,14.70
